createdAt,value
2023-03-04T00:00:12.114Z,67078.44
2023-03-04T00:02:39.774Z,67081.63
2023-03-04T00:05:07.287Z,67084.41
2023-03-04T00:07:34.375Z,67082.38
2023-03-04T00:10:01.541Z,67082.38
2023-03-04T00:12:28.692Z,67087.22
2023-03-04T00:15:02.090Z,67087.78
2023-03-04T00:17:31.531Z,67088.34
2023-03-04T00:19:58.725Z,67085.75
2023-03-04T00:22:31.446Z,67083.16
2023-03-04T00:24:58.576Z,67085.75
2023-03-04T00:27:27.634Z,67088.34
2023-03-04T00:29:56.403Z,67090.03
2023-03-04T00:32:23.809Z,67085.41
2023-03-04T00:34:51.290Z,67089.13
2023-03-04T00:37:18.937Z,67091.16
2023-03-04T00:39:46.196Z,67088.56
2023-03-04T00:42:13.346Z,67087.09
2023-03-04T00:44:40.607Z,67092.28
2023-03-04T00:47:08.225Z,67090.81
2023-03-04T00:49:35.316Z,67093.97
2023-03-04T00:52:11.517Z,67093.41
2023-03-04T00:54:38.586Z,67048.91
2023-03-04T00:57:08.657Z,67095.31
2023-03-04T00:59:35.816Z,67096.22
2023-03-04T01:02:03.256Z,67095.84
2023-03-04T01:04:31.129Z,67097.91
2023-03-04T01:07:00.273Z,67094.75
2023-03-04T01:09:29.764Z,67090.66
2023-03-04T01:11:57.480Z,67099.59
2023-03-04T01:14:24.683Z,67093.06
2023-03-04T01:16:52.307Z,67093.97
2023-03-04T01:19:19.709Z,67091.38
2023-03-04T01:21:47.181Z,67091.16
2023-03-04T01:24:16.146Z,67087.09
2023-03-04T01:26:43.635Z,67090.81
2023-03-04T01:29:10.996Z,67089.69
2023-03-04T01:31:38.381Z,67087.44
2023-03-04T01:34:06.075Z,67085.75
2023-03-04T01:36:33.378Z,67089.13
2023-03-04T01:39:00.966Z,67090.59
2023-03-04T01:41:28.724Z,67086.88
2023-03-04T01:43:57.506Z,67087.66
2023-03-04T01:46:24.976Z,67046.09
2023-03-04T01:48:52.934Z,67093.41
2023-03-04T01:51:21.331Z,67089.69
2023-03-04T01:53:52.097Z,67094.88
2023-03-04T01:56:24.240Z,67090.03
2023-03-04T01:59:12.622Z,67085.41
2023-03-04T02:01:43.238Z,67090.59
2023-03-04T02:04:13.405Z,67089.13
2023-03-04T02:06:41.805Z,67088.56
2023-03-04T02:09:10.871Z,67090.81
2023-03-04T02:11:39.089Z,67090.81
2023-03-04T02:14:07.520Z,67096.22
2023-03-04T02:16:35.049Z,67094.75
2023-03-04T02:19:02.854Z,67093.25
2023-03-04T02:21:32.081Z,67096.44
2023-03-04T02:24:15.926Z,67096.75
2023-03-04T02:26:46.938Z,67092.16
2023-03-04T02:29:16.714Z,67096.97
2023-03-04T02:31:50.106Z,67096.44
2023-03-04T02:34:27.881Z,67095.31
2023-03-04T02:36:57.125Z,67094.38
2023-03-04T02:39:39.696Z,67096.44
2023-03-04T02:42:08.061Z,67094.75
2023-03-04T02:44:39.069Z,67096.44
2023-03-04T02:47:11.030Z,67093.25
2023-03-04T02:49:40.336Z,67100.13
2023-03-04T02:52:20.792Z,67093.63
2023-03-04T02:54:48.471Z,67101.06
2023-03-04T02:57:17.004Z,67092.34
2023-03-04T02:59:48.604Z,67095.53
2023-03-04T03:02:20.340Z,67100.13
2023-03-04T03:04:47.988Z,67096.44
2023-03-04T03:07:18.693Z,67103.31
2023-03-04T03:09:46.410Z,67091.56
2023-03-04T03:12:13.719Z,67091.56
2023-03-04T03:14:41.057Z,67096.22
2023-03-04T03:17:11.142Z,67096.75
2023-03-04T03:19:38.486Z,67094.16
2023-03-04T03:22:07.916Z,67094.75
2023-03-04T03:24:35.768Z,67091.00
2023-03-04T03:27:03.326Z,67097.34
2023-03-04T03:29:31.867Z,67092.50
2023-03-04T03:31:59.656Z,67093.25
2023-03-04T03:34:26.950Z,67095.09
2023-03-04T03:36:55.028Z,67090.25
2023-03-04T03:39:22.556Z,67087.66
2023-03-04T03:41:50.208Z,67091.16
2023-03-04T03:44:17.748Z,67084.84
2023-03-04T03:46:46.944Z,67090.03
2023-03-04T03:49:14.508Z,67086.88
2023-03-04T03:51:41.783Z,67091.16
2023-03-04T03:54:09.625Z,67090.59
2023-03-04T03:56:36.863Z,67091.16
2023-03-04T03:59:04.563Z,67090.03
2023-03-04T04:01:33.630Z,67088.00
2023-03-04T04:04:01.358Z,67089.31
2023-03-04T04:06:28.780Z,67094.53
2023-03-04T04:08:56.330Z,67093.06
2023-03-04T04:11:23.954Z,67090.47
2023-03-04T04:13:51.297Z,67094.16
2023-03-04T04:16:18.672Z,67098.44
2023-03-04T04:18:46.199Z,67100.38
2023-03-04T04:21:14.423Z,67100.91
2023-03-04T04:23:41.878Z,67104.84
2023-03-04T04:26:09.339Z,67111.03
2023-03-04T04:28:36.684Z,67117.00
2023-03-04T04:31:08.676Z,67115.53
2023-03-04T04:33:36.930Z,67116.44
2023-03-04T04:36:05.238Z,67118.13
2023-03-04T04:38:32.712Z,67113.47
2023-03-04T04:41:00.404Z,67118.31
2023-03-04T04:43:27.951Z,67117.19
2023-03-04T04:45:55.644Z,67117.78
2023-03-04T04:48:23.057Z,67116.09
2023-03-04T04:50:55.527Z,67114.03
2023-03-04T04:53:23.032Z,67118.31
2023-03-04T04:55:50.435Z,67122.59
2023-03-04T04:58:17.869Z,67121.13
2023-03-04T05:00:45.686Z,67121.13
2023-03-04T05:03:13.069Z,67121.69
2023-03-04T05:05:40.483Z,67125.06
2023-03-04T05:08:07.890Z,67126.53
2023-03-04T05:10:35.352Z,67128.78
2023-03-04T05:13:02.686Z,67123.03
2023-03-04T05:15:30.154Z,67127.31
2023-03-04T05:17:57.741Z,67122.13
2023-03-04T05:20:25.817Z,67127.31
2023-03-04T05:22:53.536Z,67085.38
2023-03-04T05:25:20.947Z,67127.88
2023-03-04T05:27:48.288Z,67122.69
2023-03-04T05:30:22.324Z,67130.13
2023-03-04T05:32:52.962Z,67131.25
2023-03-04T05:35:20.396Z,67126.97
2023-03-04T05:37:47.758Z,67126.06
2023-03-04T05:40:15.291Z,67130.69
2023-03-04T05:42:42.643Z,67138.13
2023-03-04T05:45:10.344Z,67135.53
2023-03-04T05:47:37.700Z,67135.53
2023-03-04T05:50:05.469Z,67137.78
2023-03-04T05:52:33.393Z,67135.19
2023-03-04T05:55:01.352Z,67134.25
2023-03-04T05:57:30.370Z,67132.78
2023-03-04T05:59:59.496Z,67143.94
2023-03-04T06:02:26.997Z,67142.13
2023-03-04T06:04:54.647Z,67150.47
2023-03-04T06:07:22.141Z,67146.97
2023-03-04T06:09:49.776Z,67149.56
2023-03-04T06:12:17.110Z,67153.31
2023-03-04T06:14:44.544Z,67154.06
2023-03-04T06:17:12.246Z,67152.03
2023-03-04T06:19:41.842Z,67157.06
2023-03-04T06:22:10.233Z,67155.59
2023-03-04T06:24:38.402Z,67161.91
2023-03-04T06:27:06.165Z,67163.59
2023-03-04T06:29:33.544Z,67161.78
2023-03-04T06:32:01.023Z,67168.31
2023-03-04T06:34:29.970Z,67167.75
2023-03-04T06:36:57.537Z,67173.16
2023-03-04T06:39:24.985Z,67172.25
2023-03-04T06:41:52.407Z,67177.66
2023-03-04T06:44:19.859Z,67176.19
2023-03-04T06:46:47.483Z,67175.81
2023-03-04T06:49:15.101Z,67181.03
2023-03-04T06:51:42.472Z,67183.84
2023-03-04T06:54:10.098Z,67180.34
2023-03-04T06:56:37.677Z,67178.66
2023-03-04T06:59:05.290Z,67179.19
2023-03-04T07:01:32.825Z,67179.19
2023-03-04T07:04:00.392Z,67180.88
2023-03-04T07:06:29.208Z,67185.19
2023-03-04T07:08:58.359Z,67186.09
2023-03-04T07:11:26.132Z,67184.63
2023-03-04T07:13:53.867Z,67179.97
2023-03-04T07:16:23.466Z,67190.03
2023-03-04T07:18:51.179Z,67188.56
2023-03-04T07:21:18.927Z,67189.09
2023-03-04T07:23:47.673Z,67187.63
2023-03-04T07:26:15.483Z,67191.91
2023-03-04T07:28:43.524Z,67195.88
2023-03-04T07:31:24.373Z,67196.97
2023-03-04T07:33:51.908Z,67202.94
2023-03-04T07:36:20.225Z,67199.44
2023-03-04T07:38:49.177Z,67203.72
2023-03-04T07:41:18.315Z,67202.25
2023-03-04T07:43:45.708Z,67205.41
2023-03-04T07:46:13.550Z,67205.06
2023-03-04T07:48:41.276Z,67209.00
2023-03-04T07:51:11.725Z,67214.19
2023-03-04T07:53:41.288Z,67216.63
2023-03-04T07:56:12.564Z,67215.72
2023-03-04T07:58:40.053Z,67221.50
2023-03-04T08:01:23.825Z,67224.50
2023-03-04T08:03:51.483Z,67235.00
2023-03-04T08:06:20.999Z,67239.69
2023-03-04T08:08:49.315Z,67245.88
2023-03-04T08:11:22.109Z,67248.53
2023-03-04T08:13:50.920Z,67263.09
2023-03-04T08:16:19.724Z,67258.81
2023-03-04T08:18:50.284Z,67258.25
2023-03-04T08:21:20.021Z,67262.19
2023-03-04T08:23:48.621Z,67255.09
2023-03-04T08:26:20.482Z,67258.44
2023-03-04T08:28:48.580Z,67267.25
2023-03-04T08:31:18.422Z,67262.41
2023-03-04T08:33:47.077Z,67271.53
2023-03-04T08:36:16.136Z,67267.81
2023-03-04T08:38:43.898Z,67265.56
2023-03-04T08:41:11.759Z,67267.25
2023-03-04T08:43:39.979Z,67262.41
2023-03-04T08:46:07.991Z,67259.22
2023-03-04T08:48:37.832Z,67264.63
2023-03-04T08:51:15.231Z,67267.03
2023-03-04T08:53:43.758Z,67273.06
2023-03-04T08:56:11.769Z,67273.63
2023-03-04T08:58:39.534Z,67278.34
2023-03-04T09:01:13.083Z,67284.81
2023-03-04T09:03:41.529Z,67275.66
2023-03-04T09:06:10.466Z,67276.44
2023-03-04T09:08:37.860Z,67279.97
2023-03-04T09:11:05.700Z,67270.81
2023-03-04T09:13:33.803Z,67273.06
2023-03-04T09:16:01.483Z,67277.91
2023-03-04T09:18:29.158Z,67274.56
2023-03-04T09:20:56.551Z,67275.88
2023-03-04T09:23:23.848Z,67286.69
2023-03-04T09:25:51.323Z,67284.69
2023-03-04T09:28:20.281Z,67284.09
2023-03-04T09:30:49.396Z,67291.78
2023-03-04T09:33:17.012Z,67295.72
2023-03-04T09:35:44.885Z,67295.94
2023-03-04T09:38:12.330Z,67297.25
2023-03-04T09:40:43.447Z,67297.94
2023-03-04T09:43:19.046Z,67294.78
2023-03-04T09:45:55.068Z,67293.09
2023-03-04T09:48:25.171Z,67297.25
2023-03-04T09:51:26.422Z,67299.50
2023-03-04T09:54:05.153Z,67301.56
2023-03-04T09:56:37.110Z,67300.97
2023-03-04T09:59:19.708Z,67312.03
2023-03-04T10:01:52.327Z,67319.19
2023-03-04T10:04:40.128Z,67331.91
2023-03-04T10:07:22.654Z,67328.19
2023-03-04T10:09:59.904Z,67336.97
2023-03-04T10:12:31.852Z,67336.97
2023-03-04T10:15:04.564Z,67340.91
2023-03-04T10:17:43.062Z,67340.91
2023-03-04T10:20:19.200Z,67340.13
2023-03-04T10:22:58.521Z,67333.81
2023-03-04T10:25:29.738Z,67340.13
2023-03-04T10:28:13.052Z,67343.38
2023-03-04T10:30:56.648Z,67352.19
2023-03-04T10:33:30.605Z,67355.56
2023-03-04T10:36:27.446Z,67352.19
2023-03-04T10:38:59.498Z,67341.34
2023-03-04T10:41:29.806Z,67344.50
2023-03-04T10:44:05.322Z,67345.41
2023-03-04T10:46:33.285Z,67346.97
2023-03-04T10:49:00.945Z,67359.84
2023-03-04T10:51:29.933Z,67360.97
2023-03-04T10:54:23.687Z,67352.94
2023-03-04T10:56:58.372Z,67358.72
2023-03-04T10:59:40.294Z,67360.59
2023-03-04T11:02:23.525Z,67361.03
2023-03-04T11:05:05.057Z,67365.31
2023-03-04T11:07:52.266Z,67364.75
2023-03-04T11:10:40.563Z,67370.38
2023-03-04T11:13:21.389Z,67376.56
2023-03-04T11:15:48.870Z,67382.19
2023-03-04T11:18:21.219Z,67397.75
2023-03-04T11:20:50.186Z,67419.34
2023-03-04T11:23:23.865Z,67434.34
2023-03-04T11:25:59.037Z,67433.22
2023-03-04T11:28:31.826Z,67437.16
2023-03-04T11:31:03.423Z,67433.44
2023-03-04T11:33:44.378Z,67425.34
2023-03-04T11:36:28.542Z,67417.66
2023-03-04T11:38:57.237Z,67421.59
2023-03-04T11:41:38.466Z,67419.91
2023-03-04T11:44:08.950Z,67417.81
2023-03-04T11:47:04.519Z,67413.16
2023-03-04T11:50:23.645Z,67409.56
2023-03-04T11:53:12.784Z,67414.84
2023-03-04T11:55:58.908Z,67425.16
2023-03-04T11:58:52.188Z,67418.94
2023-03-04T12:01:42.355Z,67421.59
2023-03-04T12:04:45.276Z,67437.38
2023-03-04T12:07:36.071Z,67454.25
2023-03-04T12:10:44.716Z,67472.66
2023-03-04T12:13:38.304Z,67476.22
2023-03-04T12:16:21.456Z,67475.66
2023-03-04T12:19:13.343Z,67491.78
2023-03-04T12:22:14.131Z,67500.38
2023-03-04T12:25:03.186Z,67498.34
2023-03-04T12:27:58.030Z,67495.94
2023-03-04T12:30:40.555Z,67502.69
2023-03-04T12:33:21.356Z,67498.94
2023-03-04T12:36:17.097Z,67500.78
2023-03-04T12:39:00.924Z,67504.94
2023-03-04T12:41:59.623Z,67519.19
2023-03-04T12:44:43.763Z,67520.31
2023-03-04T12:47:24.613Z,67509.81
2023-03-04T12:50:04.572Z,67510.19
2023-03-04T12:52:35.303Z,67505.50
2023-03-04T12:55:04.759Z,67515.81
2023-03-04T12:57:33.445Z,67522.41
2023-03-04T13:00:35.146Z,67526.34
2023-03-04T13:03:18.139Z,67521.84
2023-03-04T13:06:27.688Z,67532.34
2023-03-04T13:09:11.918Z,67527.84
2023-03-04T13:11:54.948Z,67529.53
2023-03-04T13:14:26.059Z,67525.59
2023-03-04T13:16:55.112Z,67523.34
2023-03-04T13:19:41.334Z,67518.47
2023-03-04T13:22:28.693Z,67525.59
2023-03-04T13:24:58.241Z,67524.47
2023-03-04T13:28:04.894Z,67522.41
2023-03-04T13:30:32.350Z,67521.84
2023-03-04T13:33:09.053Z,67533.09
2023-03-04T13:35:54.964Z,67546.63
2023-03-04T13:38:24.590Z,67558.47
2023-03-04T13:41:21.123Z,67575.19
2023-03-04T13:43:54.513Z,67587.56
2023-03-04T13:46:24.848Z,67586.09
2023-03-04T13:48:52.627Z,67585.72
2023-03-04T13:51:30.339Z,67595.13
2023-03-04T13:54:02.944Z,67605.41
2023-03-04T13:56:37.829Z,67601.88
2023-03-04T13:59:08.676Z,67602.09
2023-03-04T14:01:39.678Z,67614.44
2023-03-04T14:04:22.108Z,67618.78
2023-03-04T14:06:51.327Z,67615.97
2023-03-04T14:09:26.377Z,67615.97
2023-03-04T14:11:57.430Z,67607.72
2023-03-04T14:14:28.850Z,67608.44
2023-03-04T14:17:03.422Z,67611.06
2023-03-04T14:19:43.221Z,67609.56
2023-03-04T14:22:30.572Z,67610.34
2023-03-04T14:25:01.079Z,67607.31
2023-03-04T14:27:33.252Z,67601.31
2023-03-04T14:30:03.910Z,67599.06
2023-03-04T14:32:31.945Z,67608.44
2023-03-04T14:35:19.777Z,67620.63
2023-03-04T14:38:07.038Z,67627.03
2023-03-04T14:40:45.316Z,67627.03
2023-03-04T14:43:21.326Z,67618.22
2023-03-04T14:45:52.614Z,67620.28
2023-03-04T14:48:33.683Z,67612.22
2023-03-04T14:51:03.909Z,67621.78
2023-03-04T14:53:33.538Z,67617.66
2023-03-04T14:56:07.174Z,67622.53
2023-03-04T14:58:52.029Z,67618.97
2023-03-04T15:01:28.992Z,67611.47
2023-03-04T15:04:08.102Z,67605.25
2023-03-04T15:06:39.988Z,67603.94
2023-03-04T15:09:19.197Z,67603.38
2023-03-04T15:11:53.090Z,67605.25
2023-03-04T15:14:54.136Z,67609.56
2023-03-04T15:17:39.785Z,67606.19
2023-03-04T15:20:07.365Z,67604.50
2023-03-04T15:22:54.722Z,67595.88
2023-03-04T15:25:23.140Z,67589.25
2023-03-04T15:27:51.472Z,67574.44
2023-03-04T15:30:21.550Z,67573.13
2023-03-04T15:32:49.964Z,67569.19
2023-03-04T15:35:19.210Z,67572.16
2023-03-04T15:37:49.584Z,67563.53
2023-03-04T15:40:22.009Z,67561.66
2023-03-04T15:42:49.793Z,67553.97
2023-03-04T15:45:38.064Z,67551.72
2023-03-04T15:48:09.382Z,67548.69
2023-03-04T15:50:47.687Z,67536.50
2023-03-04T15:53:22.778Z,67540.25
2023-03-04T15:55:50.176Z,67533.88
2023-03-04T15:58:18.076Z,67540.38
2023-03-04T16:00:45.437Z,67524.47
2023-03-04T16:03:17.807Z,67515.09
2023-03-04T16:05:48.125Z,67517.16
2023-03-04T16:08:18.625Z,67516.00
2023-03-04T16:10:47.519Z,67507.41
2023-03-04T16:13:17.850Z,67510.94
2023-03-04T16:15:45.983Z,67518.84
2023-03-04T16:18:14.699Z,67509.81
2023-03-04T16:20:46.151Z,67509.25
2023-03-04T16:23:17.635Z,67504.19
2023-03-04T16:25:47.375Z,67500.25
2023-03-04T16:28:15.026Z,67504.53
2023-03-04T16:30:42.730Z,67501.16
2023-03-04T16:33:11.541Z,67496.84
2023-03-04T16:35:44.376Z,67486.56
2023-03-04T16:38:23.210Z,67487.84
2023-03-04T16:40:51.588Z,67488.41
2023-03-04T16:43:19.390Z,67481.31
2023-03-04T16:45:47.244Z,67476.22
2023-03-04T16:48:16.369Z,67476.00
2023-03-04T16:50:44.964Z,67480.88
2023-03-04T16:53:38.885Z,67477.34
2023-03-04T16:56:11.957Z,67475.44
2023-03-04T16:58:39.366Z,67480.31
2023-03-04T17:01:07.234Z,67472.28
2023-03-04T17:03:34.706Z,67469.47
2023-03-04T17:06:02.215Z,67464.97
2023-03-04T17:08:38.142Z,67466.25
2023-03-04T17:11:06.077Z,67461.38
2023-03-04T17:13:33.383Z,67456.84
2023-03-04T17:16:03.100Z,67456.09
2023-03-04T17:18:30.861Z,67453.50
2023-03-04T17:21:07.053Z,67452.16
2023-03-04T17:23:37.823Z,67447.66
2023-03-04T17:26:06.386Z,67451.59
2023-03-04T17:28:33.903Z,67445.63
2023-03-04T17:31:02.008Z,67432.50
2023-03-04T17:33:29.421Z,67431.75
2023-03-04T17:35:58.436Z,67422.16
2023-03-04T17:38:25.892Z,67422.53
2023-03-04T17:40:53.347Z,67375.91
2023-03-04T17:43:20.819Z,67415.22
2023-03-04T17:45:48.766Z,67413.31
2023-03-04T17:48:16.374Z,67415.56
2023-03-04T17:50:53.381Z,67407.88
2023-03-04T17:53:24.309Z,67405.28
2023-03-04T17:56:00.716Z,67409.56
2023-03-04T17:58:30.886Z,67407.34
2023-03-04T18:01:02.841Z,67403.59
2023-03-04T18:03:33.118Z,67402.44
2023-03-04T18:06:00.678Z,67406.00
2023-03-04T18:08:28.115Z,67402.25
2023-03-04T18:10:55.668Z,67397.97
2023-03-04T18:13:23.163Z,67408.25
2023-03-04T18:15:55.696Z,67404.50
2023-03-04T18:18:23.354Z,67399.44
2023-03-04T18:20:57.480Z,67398.50
2023-03-04T18:23:25.447Z,67397.19
2023-03-04T18:25:53.435Z,67396.63
2023-03-04T18:28:21.164Z,67397.19
2023-03-04T18:30:51.524Z,67393.25
2023-03-04T18:33:19.847Z,67394.94
2023-03-04T18:35:47.377Z,67388.59
2023-03-04T18:38:14.848Z,67391.56
2023-03-04T18:40:45.241Z,67384.81
2023-03-04T18:43:13.215Z,67386.28
2023-03-04T18:45:40.609Z,67382.34
2023-03-04T18:48:08.362Z,67378.03
2023-03-04T18:50:35.794Z,67372.50
2023-03-04T18:53:03.430Z,67375.66
2023-03-04T18:55:31.976Z,67380.31
2023-03-04T18:58:01.509Z,67381.22
2023-03-04T19:00:29.577Z,67377.84
2023-03-04T19:03:06.719Z,67369.81
2023-03-04T19:05:34.677Z,67368.47
2023-03-04T19:08:02.374Z,67367.00
2023-03-04T19:10:30.239Z,67367.38
2023-03-04T19:12:59.647Z,67367.94
2023-03-04T19:15:27.392Z,67367.38
2023-03-04T19:17:54.905Z,67363.06
2023-03-04T19:20:22.534Z,67363.44
2023-03-04T19:22:50.998Z,67367.16
2023-03-04T19:25:18.455Z,67358.56
2023-03-04T19:27:45.958Z,67363.00
2023-03-04T19:30:14.252Z,67363.78
2023-03-04T19:32:41.701Z,67356.66
2023-03-04T19:35:41.228Z,67350.69
2023-03-04T19:38:10.825Z,67350.47
2023-03-04T19:40:40.590Z,67350.84
2023-03-04T19:43:08.738Z,67347.09
2023-03-04T19:45:36.408Z,67300.53
2023-03-04T19:48:04.156Z,67342.25
2023-03-04T19:50:32.708Z,67342.81
2023-03-04T19:53:00.305Z,67341.13
2023-03-04T19:55:29.004Z,67343.53
2023-03-04T19:57:56.667Z,67336.63
2023-03-04T20:00:24.420Z,67344.66
2023-03-04T20:02:52.197Z,67336.06
2023-03-04T20:05:19.653Z,67341.28
2023-03-04T20:07:47.223Z,67332.69
2023-03-04T20:10:16.084Z,67335.84
2023-03-04T20:12:43.714Z,67337.53
2023-03-04T20:15:11.725Z,67331.91
2023-03-04T20:17:39.679Z,67329.09
2023-03-04T20:20:10.728Z,67323.69
2023-03-04T20:22:38.704Z,67319.53
2023-03-04T20:25:07.174Z,67319.53
2023-03-04T20:27:34.796Z,67318.97
2023-03-04T20:30:03.950Z,67317.84
2023-03-04T20:32:32.239Z,67316.53
2023-03-04T20:34:59.900Z,67310.53
2023-03-04T20:37:27.434Z,67308.50
2023-03-04T20:39:57.178Z,67303.44
2023-03-04T20:42:25.070Z,67299.16
2023-03-04T20:44:53.289Z,67302.66
2023-03-04T20:47:20.940Z,67302.66
2023-03-04T20:49:49.523Z,67302.09
2023-03-04T20:52:18.911Z,67303.56
2023-03-04T20:54:46.601Z,67295.00
2023-03-04T20:57:14.509Z,67299.28
2023-03-04T20:59:41.873Z,67299.63
2023-03-04T21:02:13.672Z,67299.09
2023-03-04T21:04:41.262Z,67295.94
2023-03-04T21:07:08.936Z,67290.72
2023-03-04T21:09:36.431Z,67298.53
2023-03-04T21:12:04.070Z,67298.16
2023-03-04T21:14:32.607Z,67295.72
2023-03-04T21:17:02.623Z,67295.16
2023-03-04T21:19:37.123Z,67292.00
2023-03-04T21:22:05.165Z,67291.41
2023-03-04T21:24:36.207Z,67285.44
2023-03-04T21:27:05.003Z,67290.09
2023-03-04T21:29:33.071Z,67287.13
2023-03-04T21:32:23.758Z,67292.00
2023-03-04T21:34:53.388Z,67289.94
2023-03-04T21:37:24.580Z,67291.06
2023-03-04T21:39:52.197Z,67292.00
2023-03-04T21:42:19.646Z,67293.47
2023-03-04T21:44:50.021Z,67292.91
2023-03-04T21:47:19.484Z,67291.22
2023-03-04T21:49:47.105Z,67291.41
2023-03-04T21:52:14.680Z,67297.63
2023-03-04T21:54:42.338Z,67295.34
2023-03-04T21:57:10.337Z,67292.19
2023-03-04T21:59:39.185Z,67292.75
2023-03-04T22:02:25.232Z,67298.53
2023-03-04T22:04:53.897Z,67291.06
2023-03-04T22:07:21.592Z,67293.09
2023-03-04T22:09:49.040Z,67295.34
2023-03-04T22:12:18.418Z,67291.63
2023-03-04T22:14:46.932Z,67246.59
2023-03-04T22:17:14.401Z,67290.31
2023-03-04T22:19:42.062Z,67290.31
2023-03-04T22:22:09.502Z,67293.47
2023-03-04T22:24:40.101Z,67292.91
2023-03-04T22:27:07.543Z,67285.44
2023-03-04T22:29:35.009Z,67291.22
2023-03-04T22:32:02.596Z,67290.09
2023-03-04T22:34:30.857Z,67291.22
2023-03-04T22:36:58.207Z,67293.25
2023-03-04T22:39:25.589Z,67287.13
2023-03-04T22:41:52.959Z,67286.91
2023-03-04T22:44:20.454Z,67278.34
2023-03-04T22:46:47.951Z,67282.06
2023-03-04T22:49:15.342Z,67289.53
2023-03-04T22:51:44.322Z,67285.22
2023-03-04T22:54:17.452Z,67285.22
2023-03-04T22:56:45.431Z,67273.84
2023-03-04T22:59:13.602Z,67275.66
2023-03-04T23:01:41.462Z,67277.16
2023-03-04T23:04:08.722Z,67274.56
2023-03-04T23:06:37.665Z,67270.81
2023-03-04T23:09:06.256Z,67269.69
2023-03-04T23:11:39.874Z,67269.13
2023-03-04T23:14:08.974Z,67272.66
2023-03-04T23:16:41.089Z,67269.13
2023-03-04T23:19:11.033Z,67267.81
2023-03-04T23:21:38.777Z,67261.81
2023-03-04T23:24:08.250Z,67265.56
2023-03-04T23:26:38.956Z,67262.94
2023-03-04T23:29:09.343Z,67263.66
2023-03-04T23:31:37.013Z,67262.19
2023-03-04T23:34:04.770Z,67257.69
2023-03-04T23:36:34.693Z,67252.84
2023-03-04T23:39:03.574Z,67254.50
2023-03-04T23:41:32.114Z,67255.09
2023-03-04T23:44:00.621Z,67255.78
2023-03-04T23:46:28.427Z,67248.91
2023-03-04T23:48:55.831Z,67252.84
2023-03-04T23:51:25.482Z,67251.16
2023-03-04T23:53:52.994Z,67249.59
2023-03-04T23:56:27.070Z,67254.09
2023-03-04T23:58:55.607Z,67251.84
